EGGD Airport Information

Runway Information
Runway 09 Length 6598 ft width 151 ft
Elevation 613 ft Threshold 0 ft Heading 86
Runway 27 Length 6598 ft Width 151 ft
Elevation 601 ft Threshold 443 ft Heading 266
Airport Frequencies
Type ATIS Name ATIS Frequency 126.025 MHZ
Type GND Name GND Frequency 121.925 MHZ
Type RDR Name RDR Frequency 136.075 MHZ
Type TWR Name TWR Frequency 133.85 MHZ
Airport Navaids
Type NDB Name Bristol Frequency 414 KHZ
Airport Weather Information & NOTAM
ADDS - METARS form results

(1904 UTC 22 June 2018)
 
METAR text: EGGD 221850Z AUTO 29007KT 9999 NCD 17/09 Q1030
Conditions at: EGGD (BRISTOL/LULSGATE, GB) observed 1850 UTC 22 June 2018
Temperature: 17.0°C (63°F)
Dewpoint: 9.0°C (48°F) [RH = 59%]
Pressure (altimeter): 30.41 inches Hg (1030.0 mb)
Winds: from the WNW (290 degrees) at 8 MPH (7 knots; 3.6 m/s)
Visibility: 6 or more miles (10+ km)
Ceiling: at least 12,000 feet AGL
Clouds: sky clear below 12,000 feet AGL
Weather: no significant weather observed at this time

METAR text: EGGD 221820Z AUTO 30007KT 9999 NCD 18/09 Q1030
Conditions at: EGGD (BRISTOL/LULSGATE, GB) observed 1820 UTC 22 June 2018
Temperature: 18.0°C (64°F)
Dewpoint: 9.0°C (48°F) [RH = 56%]
Pressure (altimeter): 30.41 inches Hg (1030.0 mb)
Winds: from the WNW (300 degrees) at 8 MPH (7 knots; 3.6 m/s)
Visibility: 6 or more miles (10+ km)
Ceiling: at least 12,000 feet AGL
Clouds: sky clear below 12,000 feet AGL
Weather: no significant weather observed at this time